Terminal Aerodrome Forecast
Issued by NWS Billings, MT

Home | Current Version | Previous Version | Text Only | Print | Product List | Glossary On
Versions: 1 2 3 4 5 6 7 8 9 10 11 12 13 14 15 16 17 18 19 20 21 22 23 24 25 26 27 28 29 30 31
000
FTUS45 KBYZ 240523
TAFBIL
TAF
KBIL 240523Z 2406/2506 VRB06KT P6SM SCT150
     FM241100 22011KT P6SM SCT200
     FM241400 26015G23KT P6SM FEW150
     FM241700 31015G24KT P6SM SCT120
     FM242200 33015G24KT P6SM VCTS SCT120CB=

USA.gov is the U.S. government's official web portal to all federal, state and local government web resources and services.